createdAt,value
2023-02-22T00:00:08.461Z,18.47
2023-02-22T00:01:08.503Z,18.46
2023-02-22T00:02:08.577Z,18.47
2023-02-22T00:03:08.593Z,18.45
2023-02-22T00:04:08.661Z,18.44
2023-02-22T00:05:08.664Z,18.46
2023-02-22T00:06:08.690Z,18.42
2023-02-22T00:07:08.781Z,18.42
2023-02-22T00:08:08.837Z,18.44
2023-02-22T00:09:08.873Z,18.42
2023-02-22T00:10:08.874Z,18.46
2023-02-22T00:11:09.066Z,18.42
2023-02-22T00:12:08.995Z,18.43
2023-02-22T00:13:09.035Z,18.45
2023-02-22T00:14:09.075Z,18.45
2023-02-22T00:15:09.122Z,18.44
2023-02-22T00:16:09.170Z,18.44
2023-02-22T00:17:09.234Z,18.43
2023-02-22T00:18:09.269Z,18.43
2023-02-22T00:19:09.301Z,18.42
2023-02-22T00:20:09.384Z,18.42
2023-02-22T00:21:09.377Z,18.41
2023-02-22T00:23:09.685Z,18.40
2023-02-22T00:24:09.535Z,18.41
2023-02-22T00:25:09.566Z,18.41
2023-02-22T00:26:09.599Z,18.41
2023-02-22T00:27:09.624Z,18.42
2023-02-22T00:28:09.692Z,18.41
2023-02-22T00:29:09.727Z,18.41
2023-02-22T00:30:09.760Z,18.41
2023-02-22T00:31:09.783Z,18.42
2023-02-22T00:32:09.908Z,18.39
2023-02-22T00:33:09.887Z,18.40
2023-02-22T00:34:09.923Z,18.37
2023-02-22T00:35:09.950Z,18.37
2023-02-22T00:36:10.027Z,18.37
2023-02-22T00:37:10.106Z,18.37
2023-02-22T00:38:10.105Z,18.34
2023-02-22T00:39:10.166Z,18.38
2023-02-22T00:40:10.197Z,18.35
2023-02-22T00:41:10.289Z,18.35
2023-02-22T00:42:10.307Z,18.35
2023-02-22T00:43:10.382Z,18.36
2023-02-22T00:44:10.420Z,18.34
2023-02-22T00:45:10.467Z,18.35
2023-02-22T00:46:10.585Z,18.35
2023-02-22T00:47:10.525Z,18.34
2023-02-22T00:48:10.602Z,18.35
2023-02-22T00:49:10.702Z,18.34
2023-02-22T00:50:10.675Z,18.35
2023-02-22T00:51:10.728Z,18.37
2023-02-22T00:52:10.755Z,18.34
2023-02-22T00:53:10.840Z,18.34
2023-02-22T00:54:10.895Z,18.34
2023-02-22T00:55:10.930Z,18.36
2023-02-22T00:56:10.952Z,18.34
2023-02-22T00:57:10.982Z,18.33
2023-02-22T00:58:11.024Z,18.32
2023-02-22T00:59:11.103Z,18.33
2023-02-22T01:00:11.124Z,18.33
2023-02-22T01:01:11.144Z,18.34
2023-02-22T01:02:11.208Z,18.32
2023-02-22T01:03:11.244Z,18.32
2023-02-22T01:04:11.239Z,18.32
2023-02-22T01:05:11.266Z,18.31
2023-02-22T01:06:11.340Z,18.29
2023-02-22T01:07:11.352Z,18.30
2023-02-22T01:08:11.393Z,18.31
2023-02-22T01:09:11.454Z,18.30
2023-02-22T01:10:11.498Z,18.31
2023-02-22T01:11:11.524Z,18.30
2023-02-22T01:12:11.568Z,18.28
2023-02-22T01:13:11.597Z,18.30
2023-02-22T01:14:11.657Z,18.28
2023-02-22T01:15:11.665Z,18.27
2023-02-22T01:16:11.745Z,18.29
2023-02-22T01:17:11.740Z,18.28
2023-02-22T01:18:11.825Z,18.29
2023-02-22T01:19:11.824Z,18.30
2023-02-22T01:20:11.868Z,18.29
2023-02-22T01:21:11.917Z,18.31
2023-02-22T01:22:11.952Z,18.31
2023-02-22T01:23:11.993Z,18.29
2023-02-22T01:24:12.039Z,18.29
2023-02-22T01:25:12.104Z,18.29
2023-02-22T01:26:12.152Z,18.28
2023-02-22T01:27:12.143Z,18.30
2023-02-22T01:28:12.188Z,18.26
2023-02-22T01:29:12.269Z,18.26
2023-02-22T01:30:12.313Z,18.25
2023-02-22T01:31:12.343Z,18.26
2023-02-22T01:32:12.520Z,18.25
2023-02-22T01:33:12.392Z,18.26
2023-02-22T01:34:12.456Z,18.24
2023-02-22T01:35:12.493Z,18.24
2023-02-22T01:36:12.522Z,18.26
2023-02-22T01:37:12.566Z,18.25
2023-02-22T01:38:12.603Z,18.25
2023-02-22T01:39:12.623Z,18.26
2023-02-22T01:40:12.643Z,18.23
2023-02-22T01:41:12.691Z,18.26
2023-02-22T01:42:12.732Z,18.26
2023-02-22T01:43:12.797Z,18.26
2023-02-22T01:44:12.844Z,18.24
2023-02-22T01:45:12.860Z,18.24
2023-02-22T01:46:12.925Z,18.26
2023-02-22T01:47:12.950Z,18.25
2023-02-22T01:48:12.982Z,18.22
2023-02-22T01:49:13.008Z,18.22
2023-02-22T01:50:13.056Z,18.23
2023-02-22T01:51:13.064Z,18.23
2023-02-22T01:52:13.119Z,18.23
2023-02-22T01:53:13.142Z,18.24
2023-02-22T01:54:13.215Z,18.23
2023-02-22T01:55:13.255Z,18.21
2023-02-22T01:56:13.287Z,18.22
2023-02-22T01:57:13.338Z,18.23
2023-02-22T01:58:13.375Z,18.23
2023-02-22T01:59:13.422Z,18.23
2023-02-22T02:00:13.476Z,18.23
2023-02-22T02:36:15.052Z,18.12
2023-02-22T02:37:15.070Z,18.13
2023-02-22T02:38:15.120Z,18.12
2023-02-22T02:39:15.155Z,18.13
2023-02-22T02:40:15.254Z,18.12
2023-02-22T02:41:15.596Z,18.12
2023-02-22T02:42:15.278Z,18.12
2023-02-22T02:43:15.348Z,18.12
2023-02-22T02:44:15.431Z,18.12
2023-02-22T02:45:15.479Z,18.11
2023-02-22T02:46:15.525Z,18.13
2023-02-22T02:47:15.619Z,18.13
2023-02-22T02:48:15.619Z,18.12
2023-02-22T02:49:15.703Z,18.12
2023-02-22T02:50:15.730Z,18.11
2023-02-22T02:51:16.076Z,18.11
2023-02-22T02:52:15.807Z,18.11
2023-02-22T02:53:15.834Z,18.11
2023-02-22T02:54:16.150Z,18.10
2023-02-22T02:55:15.972Z,18.08
2023-02-22T02:56:15.979Z,18.09
2023-02-22T02:57:16.066Z,18.10
2023-02-22T02:58:16.017Z,18.09
2023-02-22T02:59:16.131Z,18.10
2023-02-22T03:00:16.132Z,18.11
2023-02-22T03:01:16.527Z,18.10
2023-02-22T03:02:16.230Z,18.08
2023-02-22T03:03:16.291Z,18.08
2023-02-22T03:04:16.319Z,18.05
2023-02-22T03:05:16.378Z,18.07
2023-02-22T03:06:16.404Z,18.06
2023-02-22T03:07:16.475Z,18.04
2023-02-22T03:08:16.493Z,18.04
2023-02-22T03:09:16.571Z,18.03
2023-02-22T03:10:16.615Z,18.01
2023-02-22T03:11:17.003Z,18.01
2023-02-22T03:12:16.666Z,18.01
2023-02-22T03:13:16.702Z,18.00
2023-02-22T03:14:16.750Z,17.99
2023-02-22T03:15:16.811Z,17.98
2023-02-22T03:16:16.823Z,17.97
2023-02-22T03:17:16.864Z,17.96
2023-02-22T03:18:16.939Z,17.97
2023-02-22T03:19:16.912Z,17.96
2023-02-22T03:20:16.968Z,17.96
2023-02-22T03:21:17.184Z,17.95
2023-02-22T03:22:16.974Z,17.95
2023-02-22T03:23:17.015Z,17.94
2023-02-22T03:24:17.046Z,17.94
2023-02-22T03:25:17.084Z,17.91
2023-02-22T03:26:17.096Z,17.93
2023-02-22T03:27:17.109Z,17.90
2023-02-22T03:28:17.135Z,17.89
2023-02-22T03:29:17.131Z,17.87
2023-02-22T03:30:17.180Z,17.86
2023-02-22T03:31:17.671Z,17.84
2023-02-22T03:32:17.220Z,17.82
2023-02-22T03:33:17.205Z,17.81
2023-02-22T03:34:17.226Z,17.80
2023-02-22T03:35:17.248Z,17.78
2023-02-22T03:36:17.254Z,17.80
2023-02-22T03:37:17.270Z,17.77
2023-02-22T03:38:17.307Z,17.79
2023-02-22T03:39:17.329Z,17.76
2023-02-22T03:40:17.363Z,17.74
2023-02-22T03:41:17.790Z,17.73
2023-02-22T03:42:17.379Z,17.72
2023-02-22T03:43:17.365Z,17.74
2023-02-22T03:44:17.476Z,17.71
2023-02-22T03:45:17.418Z,17.72
2023-02-22T03:46:17.490Z,17.71
2023-02-22T03:47:17.497Z,17.71
2023-02-22T03:48:17.515Z,17.73
2023-02-22T03:49:17.511Z,17.72
2023-02-22T03:50:17.568Z,17.71
2023-02-22T03:51:17.609Z,17.69
2023-02-22T03:52:17.572Z,17.72
2023-02-22T03:53:17.598Z,17.71
2023-02-22T03:54:17.604Z,17.69
2023-02-22T03:55:17.637Z,17.70
2023-02-22T03:56:17.640Z,17.71
2023-02-22T03:57:17.649Z,17.70
2023-02-22T03:58:17.675Z,17.73
2023-02-22T03:59:17.691Z,17.72
2023-02-22T04:00:17.676Z,17.73
2023-02-22T04:01:18.047Z,17.74
2023-02-22T04:02:17.746Z,17.74
2023-02-22T04:03:17.804Z,17.73
2023-02-22T04:04:17.796Z,17.74
2023-02-22T04:05:17.776Z,17.74
2023-02-22T04:06:17.830Z,17.75
2023-02-22T04:07:17.850Z,17.69
2023-02-22T04:08:17.869Z,17.71
2023-02-22T04:09:17.861Z,17.70
2023-02-22T04:10:17.899Z,17.69
2023-02-22T04:11:18.168Z,17.71
2023-02-22T04:12:17.904Z,17.70
2023-02-22T04:13:17.940Z,17.68
2023-02-22T04:14:17.968Z,17.68
2023-02-22T04:15:18.007Z,17.69
2023-02-22T04:16:18.071Z,17.66
2023-02-22T04:17:18.022Z,17.66
2023-02-22T04:18:18.056Z,17.66
2023-02-22T04:19:18.072Z,17.68
2023-02-22T04:20:18.094Z,17.66
2023-02-22T04:21:18.447Z,17.67
2023-02-22T04:22:18.141Z,17.66
2023-02-22T04:23:18.194Z,17.69
2023-02-22T04:24:18.173Z,17.66
2023-02-22T04:25:18.196Z,17.65
2023-02-22T04:26:18.230Z,17.66
2023-02-22T04:27:18.240Z,17.64
2023-02-22T04:28:18.306Z,17.64
2023-02-22T04:29:18.325Z,17.66
2023-02-22T04:30:18.380Z,17.65
2023-02-22T04:31:18.740Z,17.65
2023-02-22T04:32:18.415Z,17.64
2023-02-22T04:33:18.371Z,17.62
2023-02-22T04:34:18.412Z,17.62
2023-02-22T04:35:18.426Z,17.64
2023-02-22T04:36:18.447Z,17.63
2023-02-22T04:37:18.487Z,17.62
2023-02-22T04:38:18.539Z,17.61
2023-02-22T04:39:18.597Z,17.64
2023-02-22T04:40:18.560Z,17.62
2023-02-22T04:41:18.966Z,17.60
2023-02-22T04:42:18.627Z,17.61
2023-02-22T04:43:18.660Z,17.61
2023-02-22T04:44:18.671Z,17.61
2023-02-22T04:45:18.733Z,17.62
2023-02-22T04:46:18.771Z,17.60
2023-02-22T04:47:18.769Z,17.60
2023-02-22T04:48:18.797Z,17.60
2023-02-22T04:49:18.842Z,17.60
2023-02-22T04:50:18.863Z,17.59
2023-02-22T04:51:19.123Z,17.58
2023-02-22T04:52:18.890Z,17.58
2023-02-22T04:53:18.898Z,17.57
2023-02-22T04:54:18.947Z,17.57
2023-02-22T04:55:18.977Z,17.57
2023-02-22T04:56:19.008Z,17.57
2023-02-22T04:57:19.038Z,17.58
2023-02-22T04:58:19.043Z,17.58
2023-02-22T04:59:19.072Z,17.54
2023-02-22T05:00:19.082Z,17.54
2023-02-22T05:01:19.431Z,17.55
2023-02-22T05:02:19.194Z,17.55
2023-02-22T05:03:19.201Z,17.54
2023-02-22T05:04:19.225Z,17.56
2023-02-22T05:05:19.237Z,17.57
2023-02-22T05:06:19.309Z,17.53
2023-02-22T05:07:19.301Z,17.53
2023-02-22T05:08:19.315Z,17.54
2023-02-22T05:09:19.334Z,17.52
2023-02-22T05:12:19.447Z,17.53
2023-02-22T05:13:19.472Z,17.50
2023-02-22T05:14:19.462Z,17.52
2023-02-22T05:43:20.254Z,17.45
2023-02-22T05:45:20.300Z,17.44
2023-02-22T05:46:20.343Z,17.42
2023-02-22T06:01:27.721Z,17.39
2023-02-22T08:26:21.481Z,23.48
2023-02-22T08:27:21.527Z,23.67
2023-02-22T08:28:21.519Z,23.69
2023-02-22T08:29:21.473Z,23.78
2023-02-22T08:30:21.539Z,23.87
2023-02-22T08:31:21.530Z,23.27
2023-02-22T08:32:21.609Z,23.24
2023-02-22T08:33:21.601Z,23.51
2023-02-22T08:34:21.593Z,20.67
2023-02-22T08:35:21.594Z,19.40
2023-02-22T08:36:21.611Z,19.18
2023-02-22T08:37:21.607Z,19.36
2023-02-22T08:38:21.675Z,19.64
2023-02-22T08:39:21.660Z,20.05
2023-02-22T08:40:21.706Z,20.46
2023-02-22T08:41:22.106Z,20.67
2023-02-22T08:42:21.760Z,20.46
2023-02-22T08:43:21.842Z,20.51
2023-02-22T08:44:21.876Z,20.57
2023-02-22T08:47:22.045Z,21.16
2023-02-22T08:48:22.067Z,21.08
2023-02-22T08:51:22.164Z,21.01
2023-02-22T08:52:22.166Z,21.28
2023-02-22T08:53:22.204Z,21.20
2023-02-22T08:57:22.333Z,21.03
2023-02-22T08:58:22.402Z,20.73
2023-02-22T08:59:22.393Z,20.18
2023-02-22T09:02:22.681Z,19.65
2023-02-22T10:10:24.124Z,17.54
2023-02-22T10:27:25.129Z,17.50
2023-02-22T10:29:25.063Z,17.57
2023-02-22T10:30:25.853Z,17.63
2023-02-22T10:31:25.268Z,17.81
2023-02-22T10:32:25.344Z,18.25
2023-02-22T10:33:25.295Z,18.56
2023-02-22T10:34:25.346Z,18.61
2023-02-22T10:35:25.401Z,18.89
2023-02-22T10:36:25.414Z,19.43
2023-02-22T10:37:25.714Z,19.20
2023-02-22T10:38:25.552Z,18.84
2023-02-22T10:39:25.583Z,19.27
2023-02-22T10:40:25.624Z,20.15
2023-02-22T10:41:25.645Z,20.18
2023-02-22T10:42:26.159Z,20.35
2023-02-22T10:43:25.798Z,20.30
2023-02-22T10:44:25.774Z,20.38
2023-02-22T10:45:25.808Z,20.24
2023-02-22T10:46:25.853Z,20.15
2023-02-22T10:47:25.887Z,20.44
2023-02-22T10:48:26.473Z,20.67
2023-02-22T10:49:26.033Z,20.90
2023-02-22T10:50:26.076Z,21.29
2023-02-22T10:51:26.107Z,21.26
2023-02-22T10:52:26.163Z,21.22
2023-02-22T10:53:26.168Z,21.46
2023-02-22T10:54:26.207Z,21.66
2023-02-22T10:55:26.219Z,22.04
2023-02-22T10:56:26.271Z,22.34
2023-02-22T10:57:26.269Z,22.13
2023-02-22T10:58:26.496Z,22.04
2023-02-22T10:59:26.388Z,22.34
2023-02-22T11:00:26.601Z,22.48
2023-02-22T11:01:26.537Z,22.73
2023-02-22T11:02:26.710Z,22.88
2023-02-22T11:03:26.578Z,22.81
2023-02-22T11:04:26.557Z,22.75
2023-02-22T11:05:26.582Z,23.02
2023-02-22T11:06:26.606Z,23.03
2023-02-22T11:07:26.645Z,23.19
2023-02-22T11:08:26.664Z,23.16
2023-02-22T11:09:26.704Z,23.44
2023-02-22T11:10:26.695Z,23.20
2023-02-22T11:11:26.720Z,23.62
2023-02-22T11:12:26.699Z,23.31
2023-02-22T11:13:26.736Z,23.25
2023-02-22T11:14:26.735Z,23.62
2023-02-22T11:15:26.723Z,23.49
2023-02-22T11:16:26.769Z,23.42
2023-02-22T11:17:26.744Z,23.51
2023-02-22T11:18:26.782Z,23.42
2023-02-22T11:19:26.773Z,23.61
2023-02-22T11:20:26.774Z,23.30
2023-02-22T11:21:26.803Z,23.66
2023-02-22T11:22:26.805Z,23.84
2023-02-22T11:23:27.102Z,23.77
2023-02-22T11:24:30.327Z,23.86
2023-02-22T11:25:27.909Z,23.85
2023-02-22T11:34:26.647Z,24.10
2023-02-22T15:43:30.771Z,21.09
2023-02-22T15:51:30.766Z,20.87
2023-02-22T16:07:31.262Z,20.53
2023-02-22T16:18:30.506Z,20.65
2023-02-22T16:19:30.519Z,20.60
2023-02-22T16:20:30.504Z,20.63
2023-02-22T16:21:30.529Z,20.58
2023-02-22T16:22:30.557Z,20.58
2023-02-22T16:23:30.569Z,20.59
2023-02-22T16:24:30.569Z,20.55
2023-02-22T16:25:30.582Z,20.57
2023-02-22T16:26:30.572Z,20.57
2023-02-22T16:27:30.580Z,20.49
2023-02-22T16:28:30.687Z,20.50
2023-02-22T16:29:30.784Z,20.54
2023-02-22T16:30:30.732Z,20.59
2023-02-22T16:31:30.754Z,20.53
2023-02-22T16:32:30.747Z,20.56
2023-02-22T16:33:30.656Z,20.58
2023-02-22T16:34:30.667Z,20.56
2023-02-22T16:35:30.683Z,20.54
2023-02-22T16:36:30.722Z,20.55
2023-02-22T16:37:30.734Z,20.46
2023-02-22T16:38:30.761Z,20.47
2023-02-22T16:39:30.765Z,20.46
2023-02-22T16:40:30.780Z,20.43
2023-02-22T16:41:30.779Z,20.42
2023-02-22T16:42:30.882Z,20.39
2023-02-22T16:43:30.802Z,20.44
2023-02-22T16:44:30.861Z,20.45
2023-02-22T16:45:31.029Z,20.38
2023-02-22T16:46:30.944Z,20.42
2023-02-22T16:47:30.977Z,20.39
2023-02-22T16:48:30.924Z,20.40
2023-02-22T16:49:30.967Z,20.36
2023-02-22T16:50:30.951Z,20.38
2023-02-22T16:51:30.958Z,20.33
2023-02-22T16:52:30.976Z,20.32
2023-02-22T16:53:30.958Z,20.26
2023-02-22T16:54:31.354Z,20.24
2023-02-22T16:55:31.350Z,20.33
2023-02-22T16:56:31.385Z,20.26
2023-02-22T16:57:30.996Z,20.27
2023-02-22T16:58:31.008Z,20.26
2023-02-22T16:59:31.005Z,20.30
2023-02-22T17:00:31.096Z,20.32
2023-02-22T17:01:31.057Z,20.30
2023-02-22T17:02:31.037Z,20.30
2023-02-22T17:03:31.077Z,20.29
2023-02-22T17:04:31.057Z,20.27
2023-02-22T17:05:31.141Z,20.29
2023-02-22T17:06:31.129Z,20.27
2023-02-22T17:07:31.122Z,20.29
2023-02-22T17:08:31.164Z,20.27
2023-02-22T17:09:31.154Z,20.29
2023-02-22T17:10:31.177Z,20.34
2023-02-22T17:11:31.199Z,20.35
2023-02-22T17:12:31.203Z,20.31
2023-02-22T17:13:31.202Z,20.30
2023-02-22T17:14:31.229Z,20.31
2023-02-22T17:15:31.266Z,20.27
2023-02-22T17:16:31.248Z,20.29
2023-02-22T17:17:31.434Z,20.27
2023-02-22T17:18:31.261Z,20.30
2023-02-22T17:19:31.283Z,20.27
2023-02-22T17:20:31.318Z,20.26
2023-02-22T17:21:31.329Z,20.24
2023-02-22T17:22:31.406Z,20.26
2023-02-22T17:23:31.384Z,20.28
2023-02-22T17:24:31.452Z,20.31
2023-02-22T17:25:31.445Z,20.29
2023-02-22T17:26:31.458Z,20.31
2023-02-22T17:27:31.458Z,20.33
2023-02-22T17:28:31.513Z,20.36
2023-02-22T17:29:31.541Z,20.34
2023-02-22T17:30:31.594Z,20.31
2023-02-22T17:31:31.641Z,20.32
2023-02-22T17:32:31.607Z,20.36
2023-02-22T17:33:31.579Z,20.35
2023-02-22T17:34:31.662Z,20.32
2023-02-22T17:35:31.655Z,20.34
2023-02-22T17:36:31.698Z,20.32
2023-02-22T17:37:31.700Z,20.32
2023-02-22T17:38:31.752Z,20.34
2023-02-22T17:39:31.760Z,20.35
2023-02-22T17:40:31.822Z,20.32
2023-02-22T17:41:31.805Z,20.34
2023-02-22T17:42:31.832Z,20.32
2023-02-22T17:43:31.859Z,20.33
2023-02-22T17:44:31.905Z,20.36
2023-02-22T17:45:31.925Z,20.40
2023-02-22T17:46:32.047Z,20.45
2023-02-22T17:47:32.013Z,20.44
2023-02-22T17:48:32.024Z,20.43
2023-02-22T17:49:32.064Z,20.38
2023-02-22T17:50:32.072Z,20.39
2023-02-22T17:51:32.081Z,20.40
2023-02-22T17:52:32.118Z,20.35
2023-02-22T17:53:32.125Z,20.37
2023-02-22T17:54:32.170Z,20.33
2023-02-22T17:55:32.168Z,20.31
2023-02-22T17:56:32.226Z,20.35
2023-02-22T17:57:32.233Z,20.33
2023-02-22T17:58:32.291Z,20.30
2023-02-22T17:59:32.313Z,20.33
2023-02-22T18:00:32.333Z,20.33
2023-02-22T21:37:40.543Z,20.28
2023-02-22T21:38:40.579Z,20.26
2023-02-22T21:39:40.636Z,20.26
2023-02-22T21:40:40.678Z,20.24
2023-02-22T21:41:41.076Z,20.24
2023-02-22T21:42:40.775Z,20.25
2023-02-22T21:43:40.825Z,20.23
2023-02-22T21:44:40.870Z,20.23
2023-02-22T21:45:40.912Z,20.24
2023-02-22T21:46:40.961Z,20.22
2023-02-22T21:47:40.996Z,20.24
2023-02-22T21:48:41.038Z,20.27
2023-02-22T21:49:41.072Z,20.29
2023-02-22T21:50:41.103Z,20.30
2023-02-22T21:51:41.167Z,20.32
2023-02-22T21:52:41.178Z,20.31
2023-02-22T21:53:41.230Z,20.30
2023-02-22T21:54:41.431Z,20.29
2023-02-22T21:55:41.327Z,20.30
2023-02-22T21:56:41.351Z,20.30
2023-02-22T21:57:41.388Z,20.30
2023-02-22T21:58:41.429Z,20.31
2023-02-22T21:59:41.522Z,20.32
2023-02-22T22:00:41.512Z,20.33
2023-02-22T22:01:41.671Z,20.31
2023-02-22T22:02:41.646Z,20.32
2023-02-22T22:03:41.613Z,20.35
2023-02-22T22:04:41.710Z,20.37
2023-02-22T22:05:41.716Z,20.34
2023-02-22T22:06:41.765Z,20.32
2023-02-22T22:07:41.772Z,20.34
2023-02-22T22:08:41.849Z,20.32
2023-02-22T22:09:41.851Z,20.33
2023-02-22T22:10:41.925Z,20.34
2023-02-22T22:11:41.965Z,20.35
2023-02-22T22:12:42.015Z,20.33
2023-02-22T22:13:42.058Z,20.34
2023-02-22T22:14:42.085Z,20.34
2023-02-22T22:15:42.183Z,20.34
2023-02-22T22:16:42.181Z,20.33
2023-02-22T22:17:42.207Z,20.33
2023-02-22T22:18:42.245Z,20.32
2023-02-22T22:19:42.310Z,20.34
2023-02-22T22:20:42.306Z,20.33
2023-02-22T22:21:42.368Z,20.32
2023-02-22T22:22:42.420Z,20.32
2023-02-22T22:23:42.437Z,20.33
2023-02-22T22:24:42.941Z,20.32
2023-02-22T22:25:42.526Z,20.32
2023-02-22T22:26:42.602Z,20.31
2023-02-22T22:27:42.629Z,20.34
2023-02-22T22:28:42.698Z,20.33
2023-02-22T22:29:42.704Z,20.32
2023-02-22T22:30:42.834Z,20.32
2023-02-22T22:31:42.853Z,20.32
2023-02-22T22:32:42.837Z,20.32
2023-02-22T22:33:42.858Z,20.33
2023-02-22T22:34:42.928Z,20.34
2023-02-22T22:35:42.970Z,20.36
2023-02-22T22:36:43.020Z,20.35
2023-02-22T22:37:43.037Z,20.37
2023-02-22T22:38:43.116Z,20.34
2023-02-22T22:39:43.179Z,20.35
2023-02-22T22:40:43.184Z,20.33
2023-02-22T22:41:43.230Z,20.35
2023-02-22T22:42:43.249Z,20.35
2023-02-22T22:43:43.296Z,20.32
2023-02-22T22:44:43.348Z,20.35
2023-02-22T22:45:43.389Z,20.37
2023-02-22T22:46:43.615Z,20.35
2023-02-22T22:47:43.468Z,20.37
2023-02-22T22:48:43.507Z,20.36
2023-02-22T22:49:43.546Z,20.34
2023-02-22T22:50:43.629Z,20.34
2023-02-22T22:51:43.610Z,20.33
2023-02-22T22:52:43.658Z,20.36
2023-02-22T22:53:43.682Z,20.36
2023-02-22T22:54:43.734Z,20.34
2023-02-22T22:55:43.755Z,20.32
2023-02-22T22:56:43.788Z,20.34
2023-02-22T22:57:43.843Z,20.33
2023-02-22T22:58:43.903Z,20.32
2023-02-22T22:59:43.957Z,20.33
2023-02-22T23:00:43.956Z,20.31
2023-02-22T23:01:44.039Z,20.32
2023-02-22T23:02:44.062Z,20.32
2023-02-22T23:03:44.163Z,20.29
2023-02-22T23:04:44.127Z,20.31
2023-02-22T23:05:44.201Z,20.32
2023-02-22T23:06:44.301Z,20.32
2023-02-22T23:07:44.254Z,20.33
2023-02-22T23:08:44.302Z,20.31
2023-02-22T23:09:44.401Z,20.29
2023-02-22T23:10:44.378Z,20.28
2023-02-22T23:11:44.839Z,20.31
2023-02-22T23:12:44.501Z,20.29
2023-02-22T23:13:44.528Z,20.32
2023-02-22T23:14:44.534Z,20.31
2023-02-22T23:15:44.619Z,20.28
2023-02-22T23:16:44.637Z,20.28
2023-02-22T23:17:44.698Z,20.30
2023-02-22T23:18:44.744Z,20.28
2023-02-22T23:19:44.790Z,20.29
2023-02-22T23:20:44.842Z,20.30
2023-02-22T23:21:44.886Z,20.30
2023-02-22T23:22:45.000Z,20.30
2023-02-22T23:23:44.986Z,20.29
2023-02-22T23:24:45.007Z,20.29
2023-02-22T23:25:45.074Z,20.27
2023-02-22T23:26:45.072Z,20.32
2023-02-22T23:27:45.094Z,20.29
2023-02-22T23:28:45.095Z,20.30
2023-02-22T23:29:45.152Z,20.29
2023-02-22T23:30:45.250Z,20.31
2023-02-22T23:31:45.332Z,20.33
2023-02-22T23:32:45.316Z,20.33
2023-02-22T23:33:45.328Z,20.32
2023-02-22T23:34:45.431Z,20.34
2023-02-22T23:35:45.409Z,20.34
2023-02-22T23:36:45.470Z,20.33
2023-02-22T23:37:45.530Z,20.32
2023-02-22T23:38:45.561Z,20.34
2023-02-22T23:39:45.588Z,20.37
2023-02-22T23:40:45.680Z,20.37
2023-02-22T23:41:45.761Z,20.38
2023-02-22T23:42:45.732Z,20.37
2023-02-22T23:43:45.804Z,20.38
2023-02-22T23:44:45.859Z,20.38
2023-02-22T23:45:45.924Z,20.39
2023-02-22T23:46:45.907Z,20.40
2023-02-22T23:47:45.926Z,20.42
2023-02-22T23:48:45.968Z,20.43
2023-02-22T23:49:45.994Z,20.44
2023-02-22T23:50:46.102Z,20.42
2023-02-22T23:51:46.056Z,20.42
2023-02-22T23:52:46.039Z,20.43
2023-02-22T23:53:46.068Z,20.44
2023-02-22T23:54:46.100Z,20.47
2023-02-22T23:55:46.117Z,20.47
2023-02-22T23:56:46.135Z,20.49
2023-02-22T23:57:46.171Z,20.50
2023-02-22T23:58:46.216Z,20.50
2023-02-22T23:59:46.245Z,20.49
